sensor_id;sensor_type;location;lat;lon;timestamp;P1;durP1;ratioP1;P2;durP2;ratioP2
59685;SDS011;45554;51.096;16.976;2023-12-07T00:02:14;111.70;;;81.70;;
59685;SDS011;45554;51.096;16.976;2023-12-07T00:04:41;113.60;;;80.80;;
59685;SDS011;45554;51.096;16.976;2023-12-07T00:07:07;114.30;;;82.50;;
59685;SDS011;45554;51.096;16.976;2023-12-07T00:09:34;112.80;;;80.30;;
59685;SDS011;45554;51.096;16.976;2023-12-07T00:12:01;117.60;;;80.90;;
59685;SDS011;45554;51.096;16.976;2023-12-07T00:14:27;113.20;;;82.20;;
59685;SDS011;45554;51.096;16.976;2023-12-07T00:16:54;112.80;;;80.80;;
59685;SDS011;45554;51.096;16.976;2023-12-07T00:19:20;108.20;;;77.90;;
59685;SDS011;45554;51.096;16.976;2023-12-07T00:21:47;106.90;;;76.00;;
59685;SDS011;45554;51.096;16.976;2023-12-07T00:24:13;112.00;;;80.00;;
59685;SDS011;45554;51.096;16.976;2023-12-07T00:26:40;109.70;;;78.70;;
59685;SDS011;45554;51.096;16.976;2023-12-07T00:29:07;112.60;;;80.00;;
59685;SDS011;45554;51.096;16.976;2023-12-07T00:31:33;105.90;;;76.30;;
59685;SDS011;45554;51.096;16.976;2023-12-07T00:34:00;106.50;;;78.30;;
59685;SDS011;45554;51.096;16.976;2023-12-07T00:36:26;106.70;;;78.60;;
59685;SDS011;45554;51.096;16.976;2023-12-07T00:38:53;112.00;;;76.50;;
59685;SDS011;45554;51.096;16.976;2023-12-07T00:41:22;103.70;;;74.30;;
59685;SDS011;45554;51.096;16.976;2023-12-07T00:43:48;108.80;;;78.50;;
59685;SDS011;45554;51.096;16.976;2023-12-07T00:46:15;106.80;;;75.40;;
59685;SDS011;45554;51.096;16.976;2023-12-07T00:48:42;107.10;;;77.20;;
59685;SDS011;45554;51.096;16.976;2023-12-07T00:51:09;111.40;;;77.40;;
59685;SDS011;45554;51.096;16.976;2023-12-07T00:53:36;104.40;;;75.50;;
59685;SDS011;45554;51.096;16.976;2023-12-07T00:56:03;107.80;;;75.60;;
59685;SDS011;45554;51.096;16.976;2023-12-07T00:58:30;106.70;;;74.60;;
59685;SDS011;45554;51.096;16.976;2023-12-07T01:00:57;103.70;;;74.90;;
59685;SDS011;45554;51.096;16.976;2023-12-07T01:03:23;101.50;;;73.00;;
59685;SDS011;45554;51.096;16.976;2023-12-07T01:05:52;109.60;;;75.80;;
59685;SDS011;45554;51.096;16.976;2023-12-07T01:08:19;106.50;;;74.10;;
59685;SDS011;45554;51.096;16.976;2023-12-07T01:10:46;104.80;;;73.50;;
59685;SDS011;45554;51.096;16.976;2023-12-07T01:13:13;108.10;;;76.20;;
59685;SDS011;45554;51.096;16.976;2023-12-07T01:15:39;103.60;;;72.40;;
59685;SDS011;45554;51.096;16.976;2023-12-07T01:18:06;104.00;;;72.60;;
59685;SDS011;45554;51.096;16.976;2023-12-07T01:20:33;102.40;;;73.60;;
59685;SDS011;45554;51.096;16.976;2023-12-07T01:22:59;105.40;;;73.60;;
59685;SDS011;45554;51.096;16.976;2023-12-07T01:25:28;102.10;;;74.00;;
59685;SDS011;45554;51.096;16.976;2023-12-07T01:27:55;97.50;;;69.80;;
59685;SDS011;45554;51.096;16.976;2023-12-07T01:30:22;99.30;;;70.00;;
59685;SDS011;45554;51.096;16.976;2023-12-07T01:32:49;96.20;;;71.00;;
59685;SDS011;45554;51.096;16.976;2023-12-07T01:35:16;103.00;;;71.40;;
59685;SDS011;45554;51.096;16.976;2023-12-07T01:37:42;101.70;;;72.20;;
59685;SDS011;45554;51.096;16.976;2023-12-07T01:40:09;102.00;;;71.70;;
59685;SDS011;45554;51.096;16.976;2023-12-07T01:42:37;98.30;;;69.90;;
59685;SDS011;45554;51.096;16.976;2023-12-07T01:45:04;97.70;;;70.00;;
59685;SDS011;45554;51.096;16.976;2023-12-07T01:47:32;100.20;;;68.90;;
59685;SDS011;45554;51.096;16.976;2023-12-07T01:50:01;97.70;;;69.80;;
59685;SDS011;45554;51.096;16.976;2023-12-07T01:54:57;94.40;;;68.00;;
59685;SDS011;45554;51.096;16.976;2023-12-07T01:57:24;95.40;;;67.70;;
59685;SDS011;45554;51.096;16.976;2023-12-07T01:59:51;95.60;;;66.00;;
59685;SDS011;45554;51.096;16.976;2023-12-07T02:02:18;93.60;;;64.90;;
59685;SDS011;45554;51.096;16.976;2023-12-07T02:04:45;90.50;;;65.50;;
59685;SDS011;45554;51.096;16.976;2023-12-07T02:07:11;97.20;;;67.00;;
59685;SDS011;45554;51.096;16.976;2023-12-07T02:09:38;96.90;;;68.70;;
59685;SDS011;45554;51.096;16.976;2023-12-07T02:12:05;94.90;;;66.20;;
59685;SDS011;45554;51.096;16.976;2023-12-07T02:14:32;99.50;;;69.20;;
59685;SDS011;45554;51.096;16.976;2023-12-07T02:17:21;95.10;;;66.40;;
59685;SDS011;45554;51.096;16.976;2023-12-07T02:22:42;94.00;;;66.50;;
59685;SDS011;45554;51.096;16.976;2023-12-07T02:25:12;96.70;;;67.10;;
59685;SDS011;45554;51.096;16.976;2023-12-07T02:27:41;96.10;;;67.70;;
59685;SDS011;45554;51.096;16.976;2023-12-07T02:30:09;95.10;;;66.30;;
59685;SDS011;45554;51.096;16.976;2023-12-07T02:32:38;94.60;;;66.50;;
59685;SDS011;45554;51.096;16.976;2023-12-07T02:35:06;99.20;;;69.90;;
59685;SDS011;45554;51.096;16.976;2023-12-07T02:37:35;92.80;;;64.90;;
59685;SDS011;45554;51.096;16.976;2023-12-07T02:40:07;94.80;;;66.80;;
59685;SDS011;45554;51.096;16.976;2023-12-07T02:42:38;99.40;;;67.20;;
59685;SDS011;45554;51.096;16.976;2023-12-07T02:45:07;97.20;;;68.70;;
59685;SDS011;45554;51.096;16.976;2023-12-07T02:47:35;93.30;;;66.50;;
59685;SDS011;45554;51.096;16.976;2023-12-07T02:50:02;96.60;;;65.50;;
59685;SDS011;45554;51.096;16.976;2023-12-07T02:52:30;93.70;;;67.80;;
59685;SDS011;45554;51.096;16.976;2023-12-07T02:54:57;92.60;;;66.30;;
59685;SDS011;45554;51.096;16.976;2023-12-07T02:57:23;99.20;;;69.10;;
59685;SDS011;45554;51.096;16.976;2023-12-07T02:59:50;102.10;;;69.70;;
59685;SDS011;45554;51.096;16.976;2023-12-07T03:02:16;99.50;;;70.30;;
59685;SDS011;45554;51.096;16.976;2023-12-07T03:04:43;99.30;;;69.30;;
59685;SDS011;45554;51.096;16.976;2023-12-07T03:07:10;97.00;;;69.70;;
59685;SDS011;45554;51.096;16.976;2023-12-07T03:09:37;96.40;;;66.10;;
59685;SDS011;45554;51.096;16.976;2023-12-07T03:12:04;93.80;;;66.00;;
59685;SDS011;45554;51.096;16.976;2023-12-07T03:14:31;96.80;;;67.00;;
59685;SDS011;45554;51.096;16.976;2023-12-07T03:16:57;97.60;;;67.20;;
59685;SDS011;45554;51.096;16.976;2023-12-07T03:19:24;98.20;;;66.50;;
59685;SDS011;45554;51.096;16.976;2023-12-07T03:21:51;91.30;;;64.40;;
59685;SDS011;45554;51.096;16.976;2023-12-07T03:24:19;98.90;;;68.30;;
59685;SDS011;45554;51.096;16.976;2023-12-07T03:26:45;97.60;;;69.00;;
59685;SDS011;45554;51.096;16.976;2023-12-07T03:29:12;98.80;;;67.80;;
59685;SDS011;45554;51.096;16.976;2023-12-07T03:31:39;98.30;;;68.90;;
59685;SDS011;45554;51.096;16.976;2023-12-07T03:34:05;98.40;;;67.70;;
59685;SDS011;45554;51.096;16.976;2023-12-07T03:36:32;95.40;;;66.00;;
59685;SDS011;45554;51.096;16.976;2023-12-07T03:39:01;101.10;;;70.20;;
59685;SDS011;45554;51.096;16.976;2023-12-07T03:41:29;100.40;;;69.50;;
59685;SDS011;45554;51.096;16.976;2023-12-07T03:43:56;98.90;;;70.20;;
59685;SDS011;45554;51.096;16.976;2023-12-07T03:46:22;101.10;;;71.50;;
59685;SDS011;45554;51.096;16.976;2023-12-07T03:48:49;98.80;;;68.40;;
59685;SDS011;45554;51.096;16.976;2023-12-07T03:51:16;97.80;;;68.60;;
59685;SDS011;45554;51.096;16.976;2023-12-07T03:53:42;99.80;;;70.40;;
59685;SDS011;45554;51.096;16.976;2023-12-07T03:56:09;99.30;;;69.70;;
59685;SDS011;45554;51.096;16.976;2023-12-07T03:58:36;100.00;;;70.10;;
59685;SDS011;45554;51.096;16.976;2023-12-07T04:01:03;102.70;;;72.40;;
59685;SDS011;45554;51.096;16.976;2023-12-07T04:03:30;98.20;;;68.80;;
59685;SDS011;45554;51.096;16.976;2023-12-07T04:05:56;99.90;;;70.70;;
59685;SDS011;45554;51.096;16.976;2023-12-07T04:08:23;99.50;;;70.70;;
59685;SDS011;45554;51.096;16.976;2023-12-07T04:10:49;98.80;;;69.30;;
59685;SDS011;45554;51.096;16.976;2023-12-07T04:13:16;102.10;;;71.30;;
59685;SDS011;45554;51.096;16.976;2023-12-07T04:15:44;98.20;;;68.40;;
59685;SDS011;45554;51.096;16.976;2023-12-07T04:18:11;100.50;;;69.40;;
59685;SDS011;45554;51.096;16.976;2023-12-07T04:20:38;97.00;;;69.90;;
59685;SDS011;45554;51.096;16.976;2023-12-07T04:23:05;102.40;;;68.20;;
59685;SDS011;45554;51.096;16.976;2023-12-07T04:25:31;99.20;;;71.00;;
59685;SDS011;45554;51.096;16.976;2023-12-07T04:27:58;99.90;;;68.70;;
59685;SDS011;45554;51.096;16.976;2023-12-07T04:30:26;101.00;;;69.40;;
59685;SDS011;45554;51.096;16.976;2023-12-07T04:32:52;102.60;;;71.40;;
59685;SDS011;45554;51.096;16.976;2023-12-07T04:35:19;99.00;;;69.30;;
59685;SDS011;45554;51.096;16.976;2023-12-07T04:37:45;101.00;;;71.10;;
59685;SDS011;45554;51.096;16.976;2023-12-07T04:40:12;100.00;;;69.60;;
59685;SDS011;45554;51.096;16.976;2023-12-07T04:42:38;100.10;;;72.10;;
59685;SDS011;45554;51.096;16.976;2023-12-07T04:45:06;101.40;;;70.80;;
59685;SDS011;45554;51.096;16.976;2023-12-07T04:47:33;104.70;;;69.40;;
59685;SDS011;45554;51.096;16.976;2023-12-07T04:50:00;100.70;;;71.40;;
59685;SDS011;45554;51.096;16.976;2023-12-07T04:52:27;102.70;;;69.90;;
59685;SDS011;45554;51.096;16.976;2023-12-07T04:54:54;101.00;;;69.10;;
59685;SDS011;45554;51.096;16.976;2023-12-07T04:57:21;105.70;;;73.40;;
59685;SDS011;45554;51.096;16.976;2023-12-07T04:59:47;101.50;;;70.60;;
59685;SDS011;45554;51.096;16.976;2023-12-07T05:02:15;105.30;;;72.20;;
59685;SDS011;45554;51.096;16.976;2023-12-07T05:04:43;105.00;;;70.90;;
59685;SDS011;45554;51.096;16.976;2023-12-07T05:07:10;96.70;;;68.20;;
59685;SDS011;45554;51.096;16.976;2023-12-07T05:09:38;99.20;;;70.70;;
59685;SDS011;45554;51.096;16.976;2023-12-07T05:12:05;105.50;;;71.80;;
59685;SDS011;45554;51.096;16.976;2023-12-07T05:14:32;100.30;;;71.10;;
59685;SDS011;45554;51.096;16.976;2023-12-07T05:16:58;101.90;;;71.10;;
59685;SDS011;45554;51.096;16.976;2023-12-07T05:19:25;105.20;;;72.10;;
59685;SDS011;45554;51.096;16.976;2023-12-07T05:21:52;101.50;;;70.70;;
59685;SDS011;45554;51.096;16.976;2023-12-07T05:24:18;105.10;;;71.30;;
59685;SDS011;45554;51.096;16.976;2023-12-07T05:26:45;115.80;;;74.40;;
59685;SDS011;45554;51.096;16.976;2023-12-07T05:29:13;113.60;;;75.50;;
59685;SDS011;45554;51.096;16.976;2023-12-07T05:31:39;104.50;;;73.30;;
59685;SDS011;45554;51.096;16.976;2023-12-07T05:34:07;110.20;;;73.60;;
59685;SDS011;45554;51.096;16.976;2023-12-07T05:36:34;122.10;;;78.40;;
59685;SDS011;45554;51.096;16.976;2023-12-07T05:39:00;112.30;;;76.70;;
59685;SDS011;45554;51.096;16.976;2023-12-07T05:41:27;122.90;;;80.40;;
59685;SDS011;45554;51.096;16.976;2023-12-07T05:43:53;123.90;;;81.00;;
59685;SDS011;45554;51.096;16.976;2023-12-07T05:46:20;122.50;;;79.10;;
59685;SDS011;45554;51.096;16.976;2023-12-07T05:48:47;118.60;;;75.00;;
59685;SDS011;45554;51.096;16.976;2023-12-07T05:51:14;116.00;;;77.30;;
59685;SDS011;45554;51.096;16.976;2023-12-07T05:53:42;109.40;;;72.70;;
59685;SDS011;45554;51.096;16.976;2023-12-07T05:56:10;112.60;;;74.20;;
59685;SDS011;45554;51.096;16.976;2023-12-07T05:58:37;109.70;;;74.00;;
59685;SDS011;45554;51.096;16.976;2023-12-07T06:01:04;119.70;;;78.80;;
59685;SDS011;45554;51.096;16.976;2023-12-07T06:03:31;120.70;;;78.20;;
59685;SDS011;45554;51.096;16.976;2023-12-07T06:05:58;117.90;;;75.80;;
59685;SDS011;45554;51.096;16.976;2023-12-07T06:08:25;122.20;;;78.30;;
59685;SDS011;45554;51.096;16.976;2023-12-07T06:10:52;127.50;;;81.10;;
59685;SDS011;45554;51.096;16.976;2023-12-07T06:13:18;135.40;;;84.30;;
59685;SDS011;45554;51.096;16.976;2023-12-07T06:15:45;138.00;;;86.00;;
59685;SDS011;45554;51.096;16.976;2023-12-07T06:18:11;139.80;;;85.60;;
59685;SDS011;45554;51.096;16.976;2023-12-07T06:20:38;152.50;;;88.40;;
59685;SDS011;45554;51.096;16.976;2023-12-07T06:23:04;150.20;;;87.70;;
59685;SDS011;45554;51.096;16.976;2023-12-07T06:25:33;152.60;;;90.10;;
59685;SDS011;45554;51.096;16.976;2023-12-07T06:27:59;157.90;;;91.30;;
59685;SDS011;45554;51.096;16.976;2023-12-07T06:30:26;161.60;;;93.10;;
59685;SDS011;45554;51.096;16.976;2023-12-07T06:32:53;160.60;;;93.20;;
59685;SDS011;45554;51.096;16.976;2023-12-07T06:35:20;149.10;;;90.80;;
59685;SDS011;45554;51.096;16.976;2023-12-07T06:37:46;165.40;;;95.20;;
59685;SDS011;45554;51.096;16.976;2023-12-07T06:40:13;159.90;;;93.30;;
59685;SDS011;45554;51.096;16.976;2023-12-07T06:42:40;151.30;;;92.80;;
59685;SDS011;45554;51.096;16.976;2023-12-07T06:45:07;146.00;;;89.60;;
59685;SDS011;45554;51.096;16.976;2023-12-07T06:47:37;143.20;;;88.60;;
59685;SDS011;45554;51.096;16.976;2023-12-07T06:50:05;136.70;;;85.70;;
59685;SDS011;45554;51.096;16.976;2023-12-07T06:52:39;147.00;;;90.30;;
59685;SDS011;45554;51.096;16.976;2023-12-07T06:55:06;137.70;;;86.30;;
59685;SDS011;45554;51.096;16.976;2023-12-07T06:57:36;140.70;;;88.20;;
59685;SDS011;45554;51.096;16.976;2023-12-07T07:00:03;141.40;;;82.50;;
59685;SDS011;45554;51.096;16.976;2023-12-07T07:02:37;135.10;;;87.80;;
59685;SDS011;45554;51.096;16.976;2023-12-07T07:05:08;129.60;;;79.60;;
59685;SDS011;45554;51.096;16.976;2023-12-07T07:07:37;125.80;;;78.60;;
59685;SDS011;45554;51.096;16.976;2023-12-07T07:10:05;128.10;;;80.90;;
59685;SDS011;45554;51.096;16.976;2023-12-07T07:12:33;125.70;;;76.80;;
59685;SDS011;45554;51.096;16.976;2023-12-07T07:15:00;115.20;;;71.60;;
59685;SDS011;45554;51.096;16.976;2023-12-07T07:17:27;115.90;;;71.10;;
59685;SDS011;45554;51.096;16.976;2023-12-07T07:19:56;120.60;;;71.70;;
59685;SDS011;45554;51.096;16.976;2023-12-07T07:22:26;113.70;;;68.30;;
59685;SDS011;45554;51.096;16.976;2023-12-07T07:24:53;109.60;;;70.50;;
59685;SDS011;45554;51.096;16.976;2023-12-07T07:27:20;116.90;;;68.60;;
59685;SDS011;45554;51.096;16.976;2023-12-07T07:29:47;112.00;;;69.10;;
59685;SDS011;45554;51.096;16.976;2023-12-07T07:32:13;98.90;;;63.20;;
59685;SDS011;45554;51.096;16.976;2023-12-07T07:34:40;103.80;;;68.30;;
59685;SDS011;45554;51.096;16.976;2023-12-07T07:37:07;107.20;;;68.70;;
59685;SDS011;45554;51.096;16.976;2023-12-07T07:39:33;115.20;;;73.10;;
59685;SDS011;45554;51.096;16.976;2023-12-07T07:42:01;112.50;;;71.20;;
59685;SDS011;45554;51.096;16.976;2023-12-07T07:44:28;110.00;;;70.60;;
59685;SDS011;45554;51.096;16.976;2023-12-07T07:46:55;113.60;;;72.50;;
59685;SDS011;45554;51.096;16.976;2023-12-07T07:49:21;117.20;;;73.70;;
59685;SDS011;45554;51.096;16.976;2023-12-07T07:51:48;115.80;;;70.00;;
59685;SDS011;45554;51.096;16.976;2023-12-07T07:54:16;112.40;;;70.00;;
59685;SDS011;45554;51.096;16.976;2023-12-07T07:56:43;120.10;;;71.50;;
59685;SDS011;45554;51.096;16.976;2023-12-07T07:59:09;119.10;;;72.00;;
59685;SDS011;45554;51.096;16.976;2023-12-07T08:01:37;119.40;;;70.90;;
59685;SDS011;45554;51.096;16.976;2023-12-07T08:04:04;110.40;;;69.20;;
59685;SDS011;45554;51.096;16.976;2023-12-07T08:06:30;115.40;;;70.10;;
59685;SDS011;45554;51.096;16.976;2023-12-07T08:09:03;113.40;;;67.70;;
59685;SDS011;45554;51.096;16.976;2023-12-07T08:11:30;110.30;;;67.80;;
59685;SDS011;45554;51.096;16.976;2023-12-07T08:13:59;113.20;;;66.80;;
59685;SDS011;45554;51.096;16.976;2023-12-07T08:16:25;112.60;;;66.30;;
59685;SDS011;45554;51.096;16.976;2023-12-07T08:18:53;111.60;;;70.20;;
59685;SDS011;45554;51.096;16.976;2023-12-07T08:21:20;117.00;;;72.20;;
59685;SDS011;45554;51.096;16.976;2023-12-07T08:23:54;115.20;;;68.50;;
59685;SDS011;45554;51.096;16.976;2023-12-07T08:26:24;111.10;;;70.90;;
59685;SDS011;45554;51.096;16.976;2023-12-07T08:28:51;116.50;;;68.00;;
59685;SDS011;45554;51.096;16.976;2023-12-07T08:31:20;115.70;;;68.40;;
59685;SDS011;45554;51.096;16.976;2023-12-07T08:33:47;113.90;;;64.90;;
59685;SDS011;45554;51.096;16.976;2023-12-07T08:36:13;110.20;;;67.00;;
59685;SDS011;45554;51.096;16.976;2023-12-07T08:38:42;114.50;;;67.20;;
59685;SDS011;45554;51.096;16.976;2023-12-07T08:41:09;115.00;;;66.40;;
59685;SDS011;45554;51.096;16.976;2023-12-07T08:43:40;109.10;;;69.10;;
59685;SDS011;45554;51.096;16.976;2023-12-07T08:46:09;115.60;;;72.20;;
59685;SDS011;45554;51.096;16.976;2023-12-07T08:48:37;118.50;;;67.20;;
59685;SDS011;45554;51.096;16.976;2023-12-07T08:51:09;118.20;;;67.50;;
59685;SDS011;45554;51.096;16.976;2023-12-07T08:53:35;110.90;;;64.50;;
59685;SDS011;45554;51.096;16.976;2023-12-07T08:56:03;125.20;;;68.20;;
59685;SDS011;45554;51.096;16.976;2023-12-07T08:58:30;108.70;;;64.60;;
59685;SDS011;45554;51.096;16.976;2023-12-07T09:00:57;111.20;;;61.30;;
59685;SDS011;45554;51.096;16.976;2023-12-07T09:03:24;116.80;;;68.70;;
59685;SDS011;45554;51.096;16.976;2023-12-07T09:05:54;112.90;;;67.20;;
59685;SDS011;45554;51.096;16.976;2023-12-07T09:08:20;117.40;;;70.50;;
59685;SDS011;45554;51.096;16.976;2023-12-07T09:10:47;117.90;;;66.30;;
59685;SDS011;45554;51.096;16.976;2023-12-07T09:13:16;112.80;;;65.80;;
59685;SDS011;45554;51.096;16.976;2023-12-07T09:15:44;115.60;;;63.80;;
59685;SDS011;45554;51.096;16.976;2023-12-07T09:18:10;116.90;;;63.40;;
59685;SDS011;45554;51.096;16.976;2023-12-07T09:20:38;109.10;;;63.20;;
59685;SDS011;45554;51.096;16.976;2023-12-07T09:23:12;108.10;;;62.50;;
59685;SDS011;45554;51.096;16.976;2023-12-07T09:25:42;110.60;;;65.10;;
59685;SDS011;45554;51.096;16.976;2023-12-07T09:28:10;113.80;;;66.50;;
59685;SDS011;45554;51.096;16.976;2023-12-07T09:30:37;113.40;;;66.40;;
59685;SDS011;45554;51.096;16.976;2023-12-07T09:33:04;118.40;;;64.50;;
59685;SDS011;45554;51.096;16.976;2023-12-07T09:35:32;109.10;;;62.40;;
59685;SDS011;45554;51.096;16.976;2023-12-07T09:38:00;108.50;;;59.70;;
59685;SDS011;45554;51.096;16.976;2023-12-07T09:40:27;114.20;;;61.80;;
59685;SDS011;45554;51.096;16.976;2023-12-07T09:42:54;113.60;;;61.60;;
59685;SDS011;45554;51.096;16.976;2023-12-07T09:45:22;105.70;;;63.80;;
59685;SDS011;45554;51.096;16.976;2023-12-07T09:47:52;107.10;;;62.30;;
59685;SDS011;45554;51.096;16.976;2023-12-07T09:50:21;115.00;;;63.80;;
59685;SDS011;45554;51.096;16.976;2023-12-07T09:55:34;119.90;;;62.30;;
59685;SDS011;45554;51.096;16.976;2023-12-07T09:58:04;115.00;;;62.80;;
59685;SDS011;45554;51.096;16.976;2023-12-07T10:00:31;120.50;;;65.10;;
59685;SDS011;45554;51.096;16.976;2023-12-07T10:02:59;119.70;;;66.10;;
59685;SDS011;45554;51.096;16.976;2023-12-07T10:05:26;113.90;;;65.50;;
59685;SDS011;45554;51.096;16.976;2023-12-07T10:07:56;126.50;;;66.00;;
59685;SDS011;45554;51.096;16.976;2023-12-07T10:10:22;117.00;;;63.70;;
59685;SDS011;45554;51.096;16.976;2023-12-07T10:12:53;115.50;;;60.60;;
59685;SDS011;45554;51.096;16.976;2023-12-07T10:15:22;121.10;;;66.90;;
59685;SDS011;45554;51.096;16.976;2023-12-07T10:17:50;114.00;;;64.20;;
59685;SDS011;45554;51.096;16.976;2023-12-07T10:20:28;119.30;;;64.90;;
59685;SDS011;45554;51.096;16.976;2023-12-07T10:25:32;123.30;;;66.10;;
59685;SDS011;45554;51.096;16.976;2023-12-07T10:28:04;124.50;;;63.20;;
59685;SDS011;45554;51.096;16.976;2023-12-07T10:30:34;124.50;;;61.80;;
59685;SDS011;45554;51.096;16.976;2023-12-07T10:33:05;123.80;;;62.10;;
59685;SDS011;45554;51.096;16.976;2023-12-07T10:35:33;119.70;;;65.70;;
59685;SDS011;45554;51.096;16.976;2023-12-07T10:38:06;128.20;;;67.00;;
59685;SDS011;45554;51.096;16.976;2023-12-07T10:40:33;127.80;;;68.40;;
59685;SDS011;45554;51.096;16.976;2023-12-07T10:43:01;126.60;;;66.20;;
59685;SDS011;45554;51.096;16.976;2023-12-07T10:45:34;123.70;;;64.50;;
59685;SDS011;45554;51.096;16.976;2023-12-07T10:48:06;122.80;;;63.20;;
59685;SDS011;45554;51.096;16.976;2023-12-07T10:50:35;118.10;;;63.40;;
59685;SDS011;45554;51.096;16.976;2023-12-07T10:53:20;124.30;;;66.50;;
59685;SDS011;45554;51.096;16.976;2023-12-07T10:55:55;130.60;;;69.40;;
59685;SDS011;45554;51.096;16.976;2023-12-07T10:58:23;126.00;;;64.20;;
59685;SDS011;45554;51.096;16.976;2023-12-07T11:00:54;127.90;;;62.40;;
59685;SDS011;45554;51.096;16.976;2023-12-07T11:03:21;125.40;;;64.80;;
59685;SDS011;45554;51.096;16.976;2023-12-07T11:05:49;118.60;;;63.60;;
59685;SDS011;45554;51.096;16.976;2023-12-07T11:11:00;122.10;;;65.10;;
59685;SDS011;45554;51.096;16.976;2023-12-07T11:13:36;126.30;;;67.70;;
59685;SDS011;45554;51.096;16.976;2023-12-07T11:16:04;119.10;;;61.20;;
59685;SDS011;45554;51.096;16.976;2023-12-07T11:18:31;126.90;;;62.40;;
59685;SDS011;45554;51.096;16.976;2023-12-07T11:20:58;111.20;;;61.20;;
59685;SDS011;45554;51.096;16.976;2023-12-07T11:23:26;107.90;;;60.20;;
59685;SDS011;45554;51.096;16.976;2023-12-07T11:25:54;96.80;;;57.50;;
59685;SDS011;45554;51.096;16.976;2023-12-07T11:28:35;90.80;;;51.30;;
59685;SDS011;45554;51.096;16.976;2023-12-07T11:31:03;83.00;;;48.00;;
59685;SDS011;45554;51.096;16.976;2023-12-07T11:33:32;79.00;;;47.20;;
59685;SDS011;45554;51.096;16.976;2023-12-07T11:40:56;76.60;;;47.70;;
59685;SDS011;45554;51.096;16.976;2023-12-07T11:46:02;75.60;;;45.20;;
59685;SDS011;45554;51.096;16.976;2023-12-07T11:48:29;69.20;;;43.10;;
59685;SDS011;45554;51.096;16.976;2023-12-07T11:51:03;70.30;;;45.00;;
59685;SDS011;45554;51.096;16.976;2023-12-07T11:53:32;71.30;;;45.40;;
59685;SDS011;45554;51.096;16.976;2023-12-07T11:56:07;67.10;;;44.30;;
59685;SDS011;45554;51.096;16.976;2023-12-07T11:58:39;60.90;;;40.20;;
59685;SDS011;45554;51.096;16.976;2023-12-07T12:01:07;64.90;;;41.80;;
59685;SDS011;45554;51.096;16.976;2023-12-07T12:03:35;57.10;;;37.00;;
59685;SDS011;45554;51.096;16.976;2023-12-07T12:06:05;50.80;;;35.50;;
59685;SDS011;45554;51.096;16.976;2023-12-07T12:08:35;55.10;;;36.90;;
59685;SDS011;45554;51.096;16.976;2023-12-07T12:11:01;56.70;;;36.40;;
59685;SDS011;45554;51.096;16.976;2023-12-07T12:13:35;55.20;;;35.50;;
59685;SDS011;45554;51.096;16.976;2023-12-07T12:16:03;55.70;;;35.50;;
59685;SDS011;45554;51.096;16.976;2023-12-07T12:18:33;51.10;;;34.10;;
59685;SDS011;45554;51.096;16.976;2023-12-07T12:21:01;54.70;;;36.40;;
59685;SDS011;45554;51.096;16.976;2023-12-07T12:23:28;57.00;;;40.60;;
59685;SDS011;45554;51.096;16.976;2023-12-07T12:25:56;55.80;;;39.40;;
59685;SDS011;45554;51.096;16.976;2023-12-07T12:28:27;55.80;;;36.20;;
59685;SDS011;45554;51.096;16.976;2023-12-07T12:31:02;59.00;;;38.90;;
59685;SDS011;45554;51.096;16.976;2023-12-07T12:33:40;53.20;;;36.20;;
59685;SDS011;45554;51.096;16.976;2023-12-07T12:36:47;53.00;;;38.30;;
59685;SDS011;45554;51.096;16.976;2023-12-07T12:39:28;54.10;;;37.80;;
59685;SDS011;45554;51.096;16.976;2023-12-07T12:45:23;56.10;;;36.70;;
59685;SDS011;45554;51.096;16.976;2023-12-07T12:48:32;56.70;;;36.70;;
59685;SDS011;45554;51.096;16.976;2023-12-07T12:51:06;55.30;;;37.00;;
59685;SDS011;45554;51.096;16.976;2023-12-07T12:55:07;55.20;;;38.30;;
59685;SDS011;45554;51.096;16.976;2023-12-07T12:58:09;52.70;;;36.40;;
59685;SDS011;45554;51.096;16.976;2023-12-07T13:00:40;56.70;;;37.90;;
59685;SDS011;45554;51.096;16.976;2023-12-07T13:03:10;57.20;;;36.50;;
59685;SDS011;45554;51.096;16.976;2023-12-07T13:05:39;52.00;;;34.10;;
59685;SDS011;45554;51.096;16.976;2023-12-07T13:08:07;50.60;;;35.70;;
59685;SDS011;45554;51.096;16.976;2023-12-07T13:10:52;50.70;;;35.20;;
59685;SDS011;45554;51.096;16.976;2023-12-07T13:13:36;51.00;;;35.90;;
59685;SDS011;45554;51.096;16.976;2023-12-07T13:16:03;53.90;;;37.70;;
59685;SDS011;45554;51.096;16.976;2023-12-07T13:18:54;53.80;;;35.50;;
59685;SDS011;45554;51.096;16.976;2023-12-07T13:21:21;50.20;;;33.80;;
59685;SDS011;45554;51.096;16.976;2023-12-07T13:23:48;49.90;;;34.40;;
59685;SDS011;45554;51.096;16.976;2023-12-07T13:26:19;51.40;;;34.80;;
59685;SDS011;45554;51.096;16.976;2023-12-07T13:29:11;51.50;;;34.30;;
59685;SDS011;45554;51.096;16.976;2023-12-07T13:36:50;53.50;;;36.80;;
59685;SDS011;45554;51.096;16.976;2023-12-07T13:40:42;54.80;;;35.90;;
59685;SDS011;45554;51.096;16.976;2023-12-07T13:48:14;52.00;;;36.40;;
59685;SDS011;45554;51.096;16.976;2023-12-07T13:50:42;53.60;;;39.10;;
59685;SDS011;45554;51.096;16.976;2023-12-07T13:53:09;51.70;;;36.80;;
59685;SDS011;45554;51.096;16.976;2023-12-07T13:55:37;49.50;;;36.70;;
59685;SDS011;45554;51.096;16.976;2023-12-07T13:58:03;53.00;;;36.00;;
59685;SDS011;45554;51.096;16.976;2023-12-07T14:00:30;53.20;;;36.40;;
59685;SDS011;45554;51.096;16.976;2023-12-07T14:02:58;48.70;;;34.60;;
59685;SDS011;45554;51.096;16.976;2023-12-07T14:06:11;49.30;;;33.90;;
59685;SDS011;45554;51.096;16.976;2023-12-07T14:08:51;49.30;;;34.40;;
59685;SDS011;45554;51.096;16.976;2023-12-07T14:11:20;48.80;;;34.80;;
59685;SDS011;45554;51.096;16.976;2023-12-07T14:13:49;46.90;;;35.10;;
59685;SDS011;45554;51.096;16.976;2023-12-07T14:16:23;51.20;;;37.00;;
59685;SDS011;45554;51.096;16.976;2023-12-07T14:19:40;49.60;;;35.30;;
59685;SDS011;45554;51.096;16.976;2023-12-07T14:22:08;51.30;;;35.50;;
59685;SDS011;45554;51.096;16.976;2023-12-07T14:25:03;48.80;;;34.80;;
